createdAt,value
2022-08-03T00:02:23.041Z,99751.50
2022-08-03T00:04:53.058Z,99748.66
2022-08-03T00:07:27.965Z,99751.31
2022-08-03T00:09:58.603Z,99747.63
2022-08-03T00:12:26.729Z,99748.72
2022-08-03T00:14:58.898Z,99747.81
2022-08-03T00:17:31.617Z,99749.22
2022-08-03T00:20:36.073Z,99742.13
2022-08-03T00:23:51.237Z,99743.91
2022-08-03T00:26:33.440Z,99732.78
2022-08-03T00:29:16.290Z,99737.06
2022-08-03T00:32:09.628Z,99731.31
2022-08-03T00:35:09.864Z,99735.16
2022-08-03T00:37:45.902Z,99731.56
2022-08-03T00:40:15.515Z,99735.63
2022-08-03T00:43:13.175Z,99732.31
2022-08-03T00:45:48.403Z,99734.06
2022-08-03T00:48:32.906Z,99726.81
2022-08-03T00:51:02.791Z,99734.84
2022-08-03T00:53:30.480Z,99721.47
2022-08-03T00:56:02.735Z,99726.66
2022-08-03T00:58:30.541Z,99708.75
2022-08-03T01:00:59.140Z,99709.38
2022-08-03T01:03:27.822Z,99728.69
2022-08-03T01:06:19.897Z,99728.69
2022-08-03T01:08:56.055Z,99729.75
2022-08-03T01:11:59.997Z,99729.81
2022-08-03T01:14:52.338Z,99725.91
2022-08-03T01:17:30.360Z,99734.72
2022-08-03T01:20:14.333Z,99732.91
2022-08-03T01:23:29.914Z,99740.75
2022-08-03T01:26:28.044Z,99740.53
2022-08-03T01:29:13.701Z,99733.34
2022-08-03T01:33:02.488Z,99733.84
2022-08-03T01:35:04.118Z,99735.00
2022-08-03T01:37:48.616Z,99729.25
2022-08-03T01:40:20.581Z,99734.25
2022-08-03T01:42:52.018Z,99728.16
2022-08-03T01:45:47.401Z,99729.13
2022-08-03T01:48:19.706Z,99732.97
2022-08-03T01:51:08.963Z,99727.47
2022-08-03T01:53:46.286Z,99732.69
2022-08-03T01:56:20.253Z,99732.44
2022-08-03T01:58:51.046Z,99733.81
2022-08-03T02:01:20.946Z,99730.25
2022-08-03T02:03:59.586Z,99732.16
2022-08-03T02:07:01.831Z,99732.16
2022-08-03T02:09:22.096Z,99733.53
2022-08-03T02:11:53.431Z,99741.53
2022-08-03T02:14:24.219Z,99722.56
2022-08-03T02:16:53.637Z,99723.91
2022-08-03T02:19:23.221Z,99724.19
2022-08-03T02:22:13.679Z,99724.47
2022-08-03T02:24:58.175Z,99727.16
2022-08-03T02:27:27.650Z,99721.13
2022-08-03T02:30:15.722Z,99726.09
2022-08-03T02:32:51.882Z,99721.19
2022-08-03T02:35:25.071Z,99726.41
2022-08-03T02:38:00.768Z,99716.72
2022-08-03T02:40:51.472Z,99730.72
2022-08-03T02:43:22.967Z,99731.91
2022-08-03T02:45:53.107Z,99722.25
2022-08-03T02:48:41.868Z,99715.63
2022-08-03T02:51:10.188Z,99723.78
2022-08-03T02:53:39.092Z,99732.34
2022-08-03T02:56:07.854Z,99731.47
2022-08-03T02:58:41.529Z,99731.47
2022-08-03T03:01:14.494Z,99736.66
2022-08-03T03:03:51.218Z,99733.06
2022-08-03T03:06:23.063Z,99734.94
2022-08-03T03:09:12.430Z,99738.31
2022-08-03T03:11:41.586Z,99742.13
2022-08-03T03:14:13.503Z,99744.59
2022-08-03T03:16:42.776Z,99749.53
2022-08-03T03:19:13.320Z,99742.69
2022-08-03T03:21:40.748Z,99746.47
2022-08-03T03:24:09.879Z,99735.22
2022-08-03T03:26:42.309Z,99745.19
2022-08-03T03:29:10.130Z,99743.28
2022-08-03T03:31:37.550Z,99742.41
2022-08-03T03:34:07.178Z,99741.50
2022-08-03T03:36:36.254Z,99752.78
2022-08-03T03:39:15.158Z,99756.59
2022-08-03T03:42:04.436Z,99755.78
2022-08-03T03:44:32.275Z,99757.41
2022-08-03T03:47:01.119Z,99753.31
2022-08-03T03:49:28.690Z,99760.78
2022-08-03T03:51:58.901Z,99751.78
2022-08-03T03:54:29.283Z,99756.97
2022-08-03T03:56:57.852Z,99758.06
2022-08-03T03:59:25.888Z,99760.28
2022-08-03T04:01:59.164Z,99766.63
2022-08-03T04:04:51.503Z,99764.97
2022-08-03T04:07:44.032Z,99769.53
2022-08-03T04:10:41.131Z,99777.59
2022-08-03T04:13:15.951Z,99773.53
2022-08-03T04:15:46.792Z,99772.50
2022-08-03T04:18:17.606Z,99763.16
2022-08-03T04:20:47.623Z,99782.66
2022-08-03T04:23:18.713Z,99788.22
2022-08-03T04:25:49.399Z,99773.91
2022-08-03T04:28:29.484Z,99792.06
2022-08-03T04:31:05.397Z,99794.56
2022-08-03T04:33:58.940Z,99797.53
2022-08-03T04:36:33.023Z,99787.72
2022-08-03T04:42:07.848Z,99802.84
2022-08-03T04:44:40.687Z,99804.78
2022-08-03T04:47:09.928Z,99805.34
2022-08-03T04:49:40.692Z,99790.47
2022-08-03T04:52:10.309Z,99799.00
2022-08-03T04:54:50.359Z,99798.19
2022-08-03T04:57:22.739Z,99800.94
2022-08-03T05:00:02.678Z,99806.41
2022-08-03T05:02:35.360Z,99792.13
2022-08-03T05:05:03.030Z,99798.19
2022-08-03T05:07:35.905Z,99801.50
2022-08-03T05:10:22.780Z,99809.16
2022-08-03T05:12:51.832Z,99806.97
2022-08-03T05:15:19.311Z,99809.94
2022-08-03T05:17:46.813Z,99806.41
2022-08-03T05:20:16.558Z,99810.69
2022-08-03T05:23:10.802Z,99817.59
2022-08-03T05:25:46.152Z,99822.00
2022-08-03T05:28:17.936Z,99822.34
2022-08-03T05:30:46.462Z,99824.91
2022-08-03T05:33:14.017Z,99825.78
2022-08-03T05:36:00.784Z,99830.19
2022-08-03T05:38:34.299Z,99831.53
2022-08-03T05:41:20.403Z,99828.53
2022-08-03T05:43:54.513Z,99827.06
2022-08-03T05:46:25.388Z,99824.59
2022-08-03T05:48:52.876Z,99831.53
2022-08-03T05:51:20.624Z,99827.41
2022-08-03T05:53:50.520Z,99837.69
2022-08-03T05:56:17.882Z,99836.78
2022-08-03T05:58:47.011Z,99841.75
2022-08-03T06:01:16.907Z,99845.06
2022-08-03T06:03:45.870Z,99825.94
2022-08-03T06:06:13.822Z,99841.25
2022-08-03T06:08:42.487Z,99851.31
2022-08-03T06:11:10.094Z,99849.94
2022-08-03T06:13:37.904Z,99849.84
2022-08-03T06:16:05.955Z,99851.66
2022-08-03T06:18:33.453Z,99844.81
2022-08-03T06:21:14.239Z,99855.13
2022-08-03T06:23:52.835Z,99851.34
2022-08-03T06:26:26.699Z,99858.16
2022-08-03T06:28:55.094Z,99851.41
2022-08-03T06:31:33.192Z,99864.53
2022-08-03T06:34:33.833Z,99853.28
2022-08-03T06:36:58.554Z,99856.41
2022-08-03T06:39:29.603Z,99857.44
2022-08-03T06:41:56.892Z,99862.06
2022-08-03T06:44:25.068Z,99858.34
2022-08-03T06:46:53.187Z,99865.19
2022-08-03T06:49:23.290Z,99850.84
2022-08-03T06:52:05.624Z,99863.00
2022-08-03T06:54:35.512Z,99866.41
2022-08-03T06:57:03.853Z,99869.56
2022-08-03T07:00:10.584Z,99871.19
2022-08-03T07:02:19.893Z,99867.63
2022-08-03T07:04:51.040Z,99870.72
2022-08-03T07:07:19.584Z,99867.47
2022-08-03T07:09:56.394Z,99878.19
2022-08-03T07:12:26.954Z,99873.19
2022-08-03T07:15:00.039Z,99883.66
2022-08-03T07:17:29.184Z,99886.28
2022-08-03T07:19:57.096Z,99880.66
2022-08-03T07:22:24.430Z,99871.16
2022-08-03T07:24:51.878Z,99876.94
2022-08-03T07:27:19.410Z,99877.53
2022-08-03T07:29:47.863Z,99881.88
2022-08-03T07:32:21.293Z,99873.66
2022-08-03T07:34:51.392Z,99881.03
2022-08-03T07:37:20.106Z,99878.47
2022-08-03T07:39:47.571Z,99871.47
2022-08-03T07:42:15.591Z,99875.72
2022-08-03T07:44:50.931Z,99871.59
2022-08-03T07:47:35.725Z,99878.44
2022-08-03T07:50:03.812Z,99875.63
2022-08-03T07:52:49.954Z,99869.19
2022-08-03T07:55:19.431Z,99882.72
2022-08-03T07:57:47.401Z,99881.50
2022-08-03T08:00:20.218Z,99883.56
2022-08-03T08:02:48.201Z,99889.00
2022-08-03T08:05:15.484Z,99885.91
2022-08-03T08:07:42.806Z,99890.44
2022-08-03T08:10:10.669Z,99889.25
2022-08-03T08:12:39.184Z,99891.63
2022-08-03T08:15:09.698Z,99890.94
2022-08-03T08:17:47.842Z,99885.66
2022-08-03T08:20:30.838Z,99901.00
2022-08-03T08:23:02.145Z,99899.91
2022-08-03T08:25:31.738Z,99903.78
2022-08-03T08:28:31.174Z,99899.16
2022-08-03T08:30:53.310Z,99914.44
2022-08-03T08:33:23.525Z,99909.81
2022-08-03T08:35:53.243Z,99909.00
2022-08-03T08:38:23.989Z,99909.69
2022-08-03T08:40:56.011Z,99915.06
2022-08-03T08:43:23.821Z,99908.97
2022-08-03T08:45:54.365Z,99917.63
2022-08-03T08:48:25.670Z,99912.44
2022-08-03T08:50:56.105Z,99915.47
2022-08-03T08:53:30.059Z,99908.69
2022-08-03T08:56:01.340Z,99908.75
2022-08-03T08:58:42.139Z,99901.50
2022-08-03T09:01:10.343Z,99900.28
2022-08-03T09:03:39.434Z,99904.53
2022-08-03T09:06:14.044Z,99903.84
2022-08-03T09:08:44.015Z,99902.44
2022-08-03T09:11:12.184Z,99902.47
2022-08-03T09:13:40.282Z,99903.16
2022-08-03T09:16:12.321Z,99902.38
2022-08-03T09:18:41.385Z,99903.50
2022-08-03T09:21:32.792Z,99900.59
2022-08-03T09:24:05.270Z,99895.41
2022-08-03T09:26:42.067Z,99896.81
2022-08-03T09:29:14.926Z,99896.94
2022-08-03T09:31:47.143Z,99890.06
2022-08-03T09:34:17.338Z,99889.09
2022-08-03T09:36:54.250Z,99894.25
2022-08-03T09:39:53.606Z,99887.03
2022-08-03T09:42:24.346Z,99890.25
2022-08-03T09:45:27.989Z,99882.03
2022-08-03T09:47:59.972Z,99879.22
2022-08-03T09:50:29.398Z,99881.59
2022-08-03T09:53:02.401Z,99883.03
2022-08-03T09:56:33.495Z,99876.31
2022-08-03T09:58:29.057Z,99874.44
2022-08-03T10:01:05.351Z,99873.66
2022-08-03T10:04:03.351Z,99870.03
2022-08-03T10:06:29.320Z,99864.47
2022-08-03T10:09:15.083Z,99862.78
2022-08-03T10:11:44.284Z,99871.88
2022-08-03T10:14:21.218Z,99864.19
2022-08-03T10:16:50.920Z,99860.88
2022-08-03T10:19:18.573Z,99852.22
2022-08-03T10:21:55.710Z,99853.16
2022-08-03T10:24:33.186Z,99848.50
2022-08-03T10:27:07.474Z,99848.88
2022-08-03T10:29:43.029Z,99846.94
2022-08-03T10:32:15.980Z,99847.75
2022-08-03T10:34:45.222Z,99845.66
2022-08-03T10:37:15.216Z,99848.34
2022-08-03T10:39:53.587Z,99841.63
2022-08-03T10:42:25.039Z,99844.72
2022-08-03T10:45:03.793Z,99849.53
2022-08-03T10:47:32.057Z,99844.91
2022-08-03T10:50:00.563Z,99837.94
2022-08-03T10:52:35.009Z,99830.69
2022-08-03T10:55:50.652Z,99831.78
2022-08-03T10:58:57.150Z,99824.88
2022-08-03T11:02:02.964Z,99822.00
2022-08-03T11:04:30.779Z,99823.66
2022-08-03T11:07:20.754Z,99817.91
2022-08-03T11:09:57.481Z,99811.75
2022-08-03T11:12:32.872Z,99813.75
2022-08-03T11:15:06.478Z,99809.91
2022-08-03T11:17:46.150Z,99816.63
2022-08-03T11:20:55.086Z,99811.56
2022-08-03T11:24:03.106Z,99799.34
2022-08-03T11:26:34.119Z,99795.81
2022-08-03T11:29:28.162Z,99793.38
2022-08-03T11:31:55.593Z,99793.34
2022-08-03T11:34:24.750Z,99784.19
2022-08-03T11:37:28.839Z,99786.44
2022-08-03T11:40:02.722Z,99785.91
2022-08-03T11:42:40.892Z,99786.06
2022-08-03T11:45:10.563Z,99782.31
2022-08-03T11:47:50.460Z,99782.59
2022-08-03T11:50:21.994Z,99775.25
2022-08-03T11:52:50.711Z,99772.50
2022-08-03T11:55:22.198Z,99771.22
2022-08-03T11:59:10.696Z,99769.63
2022-08-03T12:00:37.997Z,99765.16
2022-08-03T12:03:35.383Z,99759.56
2022-08-03T12:06:05.822Z,99759.81
2022-08-03T12:08:35.947Z,99752.84
2022-08-03T12:11:09.553Z,99762.19
2022-08-03T12:14:44.261Z,99748.31
2022-08-03T12:16:33.115Z,99742.38
2022-08-03T12:19:05.163Z,99743.97
2022-08-03T12:21:34.710Z,99745.16
2022-08-03T12:24:05.300Z,99742.28
2022-08-03T12:26:59.349Z,99739.47
2022-08-03T12:29:28.015Z,99721.72
2022-08-03T12:31:56.074Z,99732.53
2022-08-03T12:34:23.793Z,99746.56
2022-08-03T12:36:54.212Z,99731.13
2022-08-03T12:39:27.615Z,99728.09
2022-08-03T12:41:56.876Z,99734.41
2022-08-03T12:44:36.786Z,99731.13
2022-08-03T12:47:06.761Z,99721.41
2022-08-03T12:49:47.208Z,99725.84
2022-08-03T12:52:15.154Z,99729.06
2022-08-03T12:54:43.889Z,99724.00
2022-08-03T12:57:15.624Z,99727.97
2022-08-03T12:59:53.415Z,99724.63
2022-08-03T13:02:23.987Z,99721.69
2022-08-03T13:04:53.710Z,99721.81
2022-08-03T13:07:22.350Z,99715.78
2022-08-03T13:09:55.814Z,99716.88
2022-08-03T13:12:25.683Z,99720.88
2022-08-03T13:14:56.637Z,99711.31
2022-08-03T13:17:24.542Z,99703.03
2022-08-03T13:19:53.548Z,99704.78
2022-08-03T13:22:27.682Z,99698.47
2022-08-03T13:24:57.587Z,99703.94
2022-08-03T13:28:03.589Z,99704.09
2022-08-03T13:30:24.957Z,99691.41
2022-08-03T13:32:58.889Z,99693.03
2022-08-03T13:35:27.021Z,99696.88
2022-08-03T13:37:57.571Z,99690.44
2022-08-03T13:40:30.028Z,99687.06
2022-08-03T13:43:06.568Z,99685.13
2022-08-03T13:45:33.924Z,99692.44
2022-08-03T13:48:01.485Z,99692.50
2022-08-03T13:50:30.199Z,99688.22
2022-08-03T13:52:58.381Z,99676.41
2022-08-03T13:55:25.918Z,99683.97
2022-08-03T13:58:05.098Z,99680.66
2022-08-03T14:00:34.867Z,99677.47
2022-08-03T14:03:12.223Z,99672.97
2022-08-03T14:05:41.204Z,99674.78
2022-08-03T14:08:10.065Z,99667.41
2022-08-03T14:10:40.119Z,99668.47
2022-08-03T14:13:07.921Z,99669.03
2022-08-03T14:15:42.786Z,99664.34
2022-08-03T14:18:27.937Z,99663.06
2022-08-03T14:21:07.003Z,99663.97
2022-08-03T14:23:39.536Z,99659.22
2022-08-03T14:26:08.476Z,99656.19
2022-08-03T14:28:36.348Z,99657.72
2022-08-03T14:31:08.125Z,99659.78
2022-08-03T14:33:36.481Z,99655.19
2022-08-03T14:36:04.706Z,99660.94
2022-08-03T14:38:32.326Z,99655.63
2022-08-03T14:41:00.204Z,99648.16
2022-08-03T14:43:34.205Z,99648.75
2022-08-03T14:46:04.884Z,99644.75
2022-08-03T14:50:32.950Z,99650.28
2022-08-03T14:51:21.352Z,99648.91
2022-08-03T14:53:48.626Z,99649.13
2022-08-03T14:56:15.934Z,99642.69
2022-08-03T14:58:43.451Z,99642.91
2022-08-03T15:02:01.742Z,99642.19
2022-08-03T15:04:00.736Z,99650.06
2022-08-03T15:06:28.040Z,99640.69
2022-08-03T15:09:21.501Z,99642.38
2022-08-03T15:11:43.903Z,99646.13
2022-08-03T15:14:13.534Z,99639.03
2022-08-03T15:16:42.655Z,99641.13
2022-08-03T15:20:02.117Z,99638.84
2022-08-03T15:21:57.995Z,99635.34
2022-08-03T15:24:29.563Z,99638.31
2022-08-03T15:26:56.886Z,99631.91
2022-08-03T15:30:07.792Z,99635.28
2022-08-03T15:32:12.136Z,99624.09
2022-08-03T15:34:39.484Z,99624.34
2022-08-03T15:37:16.191Z,99633.38
2022-08-03T15:39:59.730Z,99633.41
2022-08-03T15:42:30.429Z,99625.94
2022-08-03T15:44:58.706Z,99626.78
2022-08-03T15:47:25.997Z,99625.88
2022-08-03T15:49:53.316Z,99623.44
2022-08-03T15:52:21.005Z,99607.28
2022-08-03T15:54:50.814Z,99614.50
2022-08-03T15:57:19.395Z,99615.38
2022-08-03T15:59:47.330Z,99615.13
2022-08-03T16:02:16.792Z,99616.28
2022-08-03T16:04:46.644Z,99622.09
2022-08-03T16:07:37.213Z,99619.00
2022-08-03T16:10:05.010Z,99607.63
2022-08-03T16:12:33.106Z,99613.06
2022-08-03T16:15:01.726Z,99614.31
2022-08-03T16:17:32.715Z,99618.66
2022-08-03T16:20:00.738Z,99626.81
2022-08-03T16:22:34.381Z,99623.44
2022-08-03T16:25:02.133Z,99613.91
2022-08-03T16:27:58.087Z,99616.75
2022-08-03T16:30:18.693Z,99612.09
2022-08-03T16:32:46.295Z,99613.97
2022-08-03T16:35:19.592Z,99608.84
2022-08-03T16:37:54.550Z,99612.00
2022-08-03T16:40:25.302Z,99617.38
2022-08-03T16:42:54.595Z,99614.94
2022-08-03T16:45:22.059Z,99623.16
2022-08-03T16:48:05.146Z,99612.66
2022-08-03T16:50:35.147Z,99618.50
2022-08-03T16:53:15.507Z,99616.84
2022-08-03T16:55:53.634Z,99613.88
2022-08-03T16:58:34.894Z,99616.53
2022-08-03T17:01:22.312Z,99616.66
2022-08-03T17:04:01.819Z,99624.34
2022-08-03T17:06:35.651Z,99618.19
2022-08-03T17:09:12.185Z,99626.41
2022-08-03T17:11:47.116Z,99613.47
2022-08-03T17:14:17.037Z,99629.31
2022-08-03T17:16:52.734Z,99626.47
2022-08-03T17:19:24.158Z,99625.75
2022-08-03T17:21:59.052Z,99631.78
2022-08-03T17:24:35.062Z,99631.56
2022-08-03T17:27:08.943Z,99633.03
2022-08-03T17:29:39.457Z,99635.91
2022-08-03T17:32:18.375Z,99645.34
2022-08-03T17:34:51.455Z,99646.25
2022-08-03T17:37:50.115Z,99647.81
2022-08-03T17:40:17.992Z,99635.75
2022-08-03T17:42:50.498Z,99639.47
2022-08-03T17:45:19.655Z,99635.03
2022-08-03T17:47:57.031Z,99641.81
2022-08-03T17:50:37.408Z,99636.47
2022-08-03T17:53:23.868Z,99635.88
2022-08-03T17:56:38.518Z,99636.25
2022-08-03T17:59:14.329Z,99629.56
2022-08-03T18:02:33.141Z,99643.16
2022-08-03T18:05:16.617Z,99638.78
2022-08-03T18:07:59.285Z,99642.19
2022-08-03T18:10:35.130Z,99638.09
2022-08-03T18:13:21.187Z,99645.59
2022-08-03T18:16:04.506Z,99646.13
2022-08-03T18:18:36.030Z,99648.88
2022-08-03T18:21:06.565Z,99648.38
2022-08-03T18:23:40.357Z,99644.13
2022-08-03T18:26:11.846Z,99646.09
2022-08-03T18:28:39.962Z,99658.19
2022-08-03T18:31:12.770Z,99658.56
2022-08-03T18:34:20.337Z,99660.72
2022-08-03T18:36:49.810Z,99663.66
2022-08-03T18:39:19.519Z,99661.81
2022-08-03T18:41:48.706Z,99658.66
2022-08-03T18:44:53.411Z,99666.63
2022-08-03T18:47:27.603Z,99665.44
2022-08-03T18:50:26.976Z,99661.16
2022-08-03T18:53:15.702Z,99670.66
2022-08-03T18:56:01.705Z,99666.88
2022-08-03T18:58:56.055Z,99670.47
2022-08-03T19:02:00.291Z,99667.75
2022-08-03T19:04:36.579Z,99670.91
2022-08-03T19:07:13.024Z,99670.34
2022-08-03T19:09:54.694Z,99672.88
2022-08-03T19:12:39.812Z,99678.28
2022-08-03T19:15:12.619Z,99680.97
2022-08-03T19:17:52.924Z,99683.06
2022-08-03T19:20:32.458Z,99661.13
2022-08-03T19:23:00.654Z,99668.69
2022-08-03T19:25:35.142Z,99683.16
2022-08-03T19:28:07.225Z,99682.44
2022-08-03T19:30:39.070Z,99690.88
2022-08-03T19:33:12.544Z,99689.16
2022-08-03T19:35:51.678Z,99687.69
2022-08-03T19:38:27.594Z,99684.50
2022-08-03T19:41:00.668Z,99689.53
2022-08-03T19:43:49.343Z,99686.25
2022-08-03T19:46:30.217Z,99684.41
2022-08-03T19:49:15.123Z,99684.31
2022-08-03T19:52:01.713Z,99685.94
2022-08-03T19:54:45.586Z,99685.13
2022-08-03T19:57:24.155Z,99685.13
2022-08-03T19:59:53.571Z,99687.19
2022-08-03T20:05:14.946Z,99691.00
2022-08-03T20:07:47.911Z,99693.63
2022-08-03T20:10:21.746Z,99687.59
2022-08-03T20:12:50.773Z,99688.09
2022-08-03T20:18:16.927Z,99686.66
2022-08-03T20:20:52.691Z,99696.31
2022-08-03T20:23:21.476Z,99693.53
2022-08-03T20:25:58.829Z,99692.19
2022-08-03T20:28:32.118Z,99686.44
2022-08-03T20:31:00.131Z,99701.53
2022-08-03T20:33:46.633Z,99696.50
2022-08-03T20:36:18.891Z,99695.47
2022-08-03T20:38:51.934Z,99696.41
2022-08-03T20:41:21.278Z,99698.75
2022-08-03T20:43:49.508Z,99699.97
2022-08-03T20:46:31.868Z,99702.53
2022-08-03T20:49:05.372Z,99695.06
2022-08-03T20:51:50.225Z,99695.06
2022-08-03T20:54:29.411Z,99696.47
2022-08-03T20:57:03.681Z,99700.19
2022-08-03T20:59:50.712Z,99691.88
2022-08-03T21:02:30.115Z,99696.09
2022-08-03T21:05:03.265Z,99697.91
2022-08-03T21:08:06.160Z,99695.66
2022-08-03T21:10:41.934Z,99706.81
2022-08-03T21:13:08.908Z,99687.78
2022-08-03T21:13:09.285Z,99686.16
2022-08-03T21:13:26.803Z,99693.75
2022-08-03T21:16:12.514Z,99700.28
2022-08-03T21:18:53.305Z,99707.75
2022-08-03T21:21:24.301Z,99708.50
2022-08-03T21:23:57.703Z,99711.34
2022-08-03T21:26:27.455Z,99713.59
2022-08-03T21:28:57.861Z,99716.22
2022-08-03T21:31:26.724Z,99720.94
2022-08-03T21:34:04.424Z,99709.78
2022-08-03T21:36:35.361Z,99717.69
2022-08-03T21:39:08.372Z,99722.84
2022-08-03T21:41:37.462Z,99717.91
2022-08-03T21:44:07.539Z,99718.09
2022-08-03T21:46:37.740Z,99720.78
2022-08-03T21:49:51.915Z,99717.91
2022-08-03T21:52:02.966Z,99727.72
2022-08-03T21:54:43.360Z,99734.91
2022-08-03T21:57:22.067Z,99742.28
2022-08-03T22:00:15.899Z,99738.41
2022-08-03T22:02:54.505Z,99746.63
2022-08-03T22:05:29.010Z,99739.13
2022-08-03T22:08:13.843Z,99738.31
2022-08-03T22:10:44.581Z,99741.78
2022-08-03T22:13:43.731Z,99743.72
2022-08-03T22:16:16.752Z,99745.59
2022-08-03T22:18:46.228Z,99736.75
2022-08-03T22:21:16.478Z,99741.06
2022-08-03T22:24:00.093Z,99735.28
2022-08-03T22:26:32.362Z,99760.25
2022-08-03T22:29:08.163Z,99747.53
2022-08-03T22:31:58.201Z,99742.78
2022-08-03T22:34:28.690Z,99744.88
2022-08-03T22:37:03.856Z,99749.81
2022-08-03T22:39:35.502Z,99739.78
2022-08-03T22:42:07.382Z,99744.19
2022-08-03T22:44:36.241Z,99741.63
2022-08-03T22:47:05.015Z,99741.06
2022-08-03T22:49:33.900Z,99743.91
2022-08-03T22:52:02.842Z,99738.56
2022-08-03T22:54:32.753Z,99739.78
2022-08-03T22:57:01.693Z,99744.19
2022-08-03T22:59:41.296Z,99738.97
2022-08-03T23:02:21.669Z,99747.19
2022-08-03T23:04:53.416Z,99744.88
2022-08-03T23:07:31.299Z,99751.97
2022-08-03T23:10:04.075Z,99744.50
2022-08-03T23:12:35.075Z,99740.25
2022-08-03T23:15:10.013Z,99736.06
2022-08-03T23:17:58.199Z,99738.31
2022-08-03T23:20:27.046Z,99736.06
2022-08-03T23:22:58.723Z,99736.88
2022-08-03T23:25:28.152Z,99733.34
2022-08-03T23:28:05.307Z,99739.94
2022-08-03T23:30:37.560Z,99744.88
2022-08-03T23:33:08.232Z,99735.00
2022-08-03T23:36:28.015Z,99736.44
2022-08-03T23:38:44.155Z,99728.56
2022-08-03T23:41:12.877Z,99729.09
2022-08-03T23:43:51.182Z,99720.56
2022-08-03T23:46:27.528Z,99724.31
2022-08-03T23:48:56.456Z,99721.03
2022-08-03T23:51:38.472Z,99710.25
2022-08-03T23:54:39.840Z,99712.28
2022-08-03T23:57:11.624Z,99728.75
2022-08-03T23:59:54.513Z,99724.25
